sensor_id;sensor_type;location;lat;lon;timestamp;P1;durP1;ratioP1;P2;durP2;ratioP2
13731;SDS011;6937;56.096;12.664;2022-08-26T00:00:24;1.70;;;1.50;;
13731;SDS011;6937;56.096;12.664;2022-08-26T00:02:49;1.42;;;1.30;;
13731;SDS011;6937;56.096;12.664;2022-08-26T00:05:15;2.45;;;1.30;;
13731;SDS011;6937;56.096;12.664;2022-08-26T00:07:40;2.22;;;1.40;;
13731;SDS011;6937;56.096;12.664;2022-08-26T00:10:06;2.95;;;1.35;;
13731;SDS011;6937;56.096;12.664;2022-08-26T00:12:32;2.63;;;1.58;;
13731;SDS011;6937;56.096;12.664;2022-08-26T00:14:57;3.90;;;1.33;;
13731;SDS011;6937;56.096;12.664;2022-08-26T00:17:22;2.22;;;1.60;;
13731;SDS011;6937;56.096;12.664;2022-08-26T00:19:48;1.60;;;1.50;;
13731;SDS011;6937;56.096;12.664;2022-08-26T00:22:13;2.15;;;1.20;;
13731;SDS011;6937;56.096;12.664;2022-08-26T00:24:39;2.20;;;1.40;;
13731;SDS011;6937;56.096;12.664;2022-08-26T00:27:04;1.95;;;1.50;;
13731;SDS011;6937;56.096;12.664;2022-08-26T00:29:30;2.25;;;1.50;;
13731;SDS011;6937;56.096;12.664;2022-08-26T00:31:58;1.42;;;1.40;;
13731;SDS011;6937;56.096;12.664;2022-08-26T00:34:24;1.63;;;1.40;;
13731;SDS011;6937;56.096;12.664;2022-08-26T00:36:49;2.13;;;1.50;;
13731;SDS011;6937;56.096;12.664;2022-08-26T00:39:14;2.60;;;1.15;;
13731;SDS011;6937;56.096;12.664;2022-08-26T00:41:40;2.55;;;1.60;;
13731;SDS011;6937;56.096;12.664;2022-08-26T00:44:06;3.03;;;1.77;;
13731;SDS011;6937;56.096;12.664;2022-08-26T00:46:33;2.33;;;1.50;;
13731;SDS011;6937;56.096;12.664;2022-08-26T00:49:04;1.67;;;1.17;;
13731;SDS011;6937;56.096;12.664;2022-08-26T00:51:33;2.25;;;1.70;;
13731;SDS011;6937;56.096;12.664;2022-08-26T00:54:04;1.55;;;1.33;;
13731;SDS011;6937;56.096;12.664;2022-08-26T00:56:35;2.45;;;1.52;;
13731;SDS011;6937;56.096;12.664;2022-08-26T00:59:06;1.50;;;1.40;;
13731;SDS011;6937;56.096;12.664;2022-08-26T01:01:33;1.75;;;1.50;;
13731;SDS011;6937;56.096;12.664;2022-08-26T01:04:02;1.48;;;1.38;;
13731;SDS011;6937;56.096;12.664;2022-08-26T01:06:28;1.85;;;1.40;;
13731;SDS011;6937;56.096;12.664;2022-08-26T01:08:55;2.28;;;1.50;;
13731;SDS011;6937;56.096;12.664;2022-08-26T01:11:21;2.08;;;1.42;;
13731;SDS011;6937;56.096;12.664;2022-08-26T01:13:47;1.50;;;1.40;;
13731;SDS011;6937;56.096;12.664;2022-08-26T01:16:15;2.47;;;1.55;;
13731;SDS011;6937;56.096;12.664;2022-08-26T01:18:41;1.85;;;1.50;;
13731;SDS011;6937;56.096;12.664;2022-08-26T01:23:40;2.05;;;1.25;;
13731;SDS011;6937;56.096;12.664;2022-08-26T01:26:11;1.58;;;1.30;;
13731;SDS011;6937;56.096;12.664;2022-08-26T01:28:44;1.63;;;1.40;;
13731;SDS011;6937;56.096;12.664;2022-08-26T01:31:12;3.03;;;1.40;;
13731;SDS011;6937;56.096;12.664;2022-08-26T01:33:47;1.92;;;1.30;;
13731;SDS011;6937;56.096;12.664;2022-08-26T01:36:27;1.65;;;1.30;;
13731;SDS011;6937;56.096;12.664;2022-08-26T01:38:53;1.30;;;1.20;;
13731;SDS011;6937;56.096;12.664;2022-08-26T01:41:19;1.65;;;1.10;;
13731;SDS011;6937;56.096;12.664;2022-08-26T01:43:47;1.92;;;1.25;;
13731;SDS011;6937;56.096;12.664;2022-08-26T01:46:17;2.42;;;1.48;;
13731;SDS011;6937;56.096;12.664;2022-08-26T01:48:45;2.92;;;1.50;;
13731;SDS011;6937;56.096;12.664;2022-08-26T01:51:12;3.75;;;1.50;;
13731;SDS011;6937;56.096;12.664;2022-08-26T01:53:39;2.72;;;1.45;;
13731;SDS011;6937;56.096;12.664;2022-08-26T01:56:05;2.05;;;1.50;;
13731;SDS011;6937;56.096;12.664;2022-08-26T01:58:40;1.73;;;1.60;;
13731;SDS011;6937;56.096;12.664;2022-08-26T02:01:09;3.00;;;1.60;;
13731;SDS011;6937;56.096;12.664;2022-08-26T02:03:35;1.63;;;1.50;;
13731;SDS011;6937;56.096;12.664;2022-08-26T02:06:10;3.83;;;1.70;;
13731;SDS011;6937;56.096;12.664;2022-08-26T02:11:10;2.85;;;1.58;;
13731;SDS011;6937;56.096;12.664;2022-08-26T02:13:37;2.00;;;1.70;;
13731;SDS011;6937;56.096;12.664;2022-08-26T02:16:07;2.28;;;1.60;;
13731;SDS011;6937;56.096;12.664;2022-08-26T02:18:33;1.65;;;1.25;;
13731;SDS011;6937;56.096;12.664;2022-08-26T02:21:01;2.60;;;1.42;;
13731;SDS011;6937;56.096;12.664;2022-08-26T02:23:27;2.67;;;1.40;;
13731;SDS011;6937;56.096;12.664;2022-08-26T02:26:02;2.28;;;1.42;;
13731;SDS011;6937;56.096;12.664;2022-08-26T02:28:30;2.13;;;1.70;;
13731;SDS011;6937;56.096;12.664;2022-08-26T02:30:59;4.72;;;1.40;;
13731;SDS011;6937;56.096;12.664;2022-08-26T02:33:26;2.75;;;1.70;;
13731;SDS011;6937;56.096;12.664;2022-08-26T02:35:52;1.83;;;1.40;;
13731;SDS011;6937;56.096;12.664;2022-08-26T02:38:18;1.52;;;1.35;;
13731;SDS011;6937;56.096;12.664;2022-08-26T02:40:43;2.97;;;1.13;;
13731;SDS011;6937;56.096;12.664;2022-08-26T02:43:08;2.22;;;1.40;;
13731;SDS011;6937;56.096;12.664;2022-08-26T02:45:36;1.80;;;1.30;;
13731;SDS011;6937;56.096;12.664;2022-08-26T02:48:12;2.10;;;1.38;;
13731;SDS011;6937;56.096;12.664;2022-08-26T02:50:40;3.35;;;1.77;;
13731;SDS011;6937;56.096;12.664;2022-08-26T02:53:05;3.10;;;1.50;;
13731;SDS011;6937;56.096;12.664;2022-08-26T02:55:31;1.55;;;1.30;;
13731;SDS011;6937;56.096;12.664;2022-08-26T02:57:57;1.83;;;1.48;;
13731;SDS011;6937;56.096;12.664;2022-08-26T03:00:23;1.67;;;1.40;;
13731;SDS011;6937;56.096;12.664;2022-08-26T03:02:48;1.67;;;1.40;;
13731;SDS011;6937;56.096;12.664;2022-08-26T03:05:14;1.73;;;1.63;;
13731;SDS011;6937;56.096;12.664;2022-08-26T03:07:40;2.45;;;1.63;;
13731;SDS011;6937;56.096;12.664;2022-08-26T03:10:06;1.67;;;1.50;;
13731;SDS011;6937;56.096;12.664;2022-08-26T03:12:32;1.75;;;1.50;;
13731;SDS011;6937;56.096;12.664;2022-08-26T03:14:58;1.70;;;1.60;;
13731;SDS011;6937;56.096;12.664;2022-08-26T03:17:23;1.98;;;1.80;;
13731;SDS011;6937;56.096;12.664;2022-08-26T03:19:48;2.13;;;1.67;;
13731;SDS011;6937;56.096;12.664;2022-08-26T03:22:14;2.63;;;1.60;;
13731;SDS011;6937;56.096;12.664;2022-08-26T03:24:39;1.67;;;1.48;;
13731;SDS011;6937;56.096;12.664;2022-08-26T03:27:05;2.78;;;1.83;;
13731;SDS011;6937;56.096;12.664;2022-08-26T03:29:30;2.33;;;1.73;;
13731;SDS011;6937;56.096;12.664;2022-08-26T03:32:15;2.38;;;1.65;;
13731;SDS011;6937;56.096;12.664;2022-08-26T03:34:40;2.72;;;1.70;;
13731;SDS011;6937;56.096;12.664;2022-08-26T03:37:06;2.92;;;1.70;;
13731;SDS011;6937;56.096;12.664;2022-08-26T03:39:32;1.83;;;1.70;;
13731;SDS011;6937;56.096;12.664;2022-08-26T03:41:58;2.92;;;1.90;;
13731;SDS011;6937;56.096;12.664;2022-08-26T03:44:23;2.67;;;1.77;;
13731;SDS011;6937;56.096;12.664;2022-08-26T03:46:49;1.90;;;1.70;;
13731;SDS011;6937;56.096;12.664;2022-08-26T03:49:14;1.60;;;1.45;;
13731;SDS011;6937;56.096;12.664;2022-08-26T03:51:40;3.58;;;1.80;;
13731;SDS011;6937;56.096;12.664;2022-08-26T03:54:06;4.40;;;2.28;;
13731;SDS011;6937;56.096;12.664;2022-08-26T03:56:31;2.95;;;2.10;;
13731;SDS011;6937;56.096;12.664;2022-08-26T03:58:57;2.60;;;2.00;;
13731;SDS011;6937;56.096;12.664;2022-08-26T04:01:24;2.60;;;1.63;;
13731;SDS011;6937;56.096;12.664;2022-08-26T04:03:51;2.65;;;1.75;;
13731;SDS011;6937;56.096;12.664;2022-08-26T04:06:23;3.03;;;2.13;;
13731;SDS011;6937;56.096;12.664;2022-08-26T04:08:54;2.85;;;1.98;;
13731;SDS011;6937;56.096;12.664;2022-08-26T04:11:21;2.17;;;1.90;;
13731;SDS011;6937;56.096;12.664;2022-08-26T04:13:49;4.07;;;1.90;;
13731;SDS011;6937;56.096;12.664;2022-08-26T04:16:15;5.32;;;2.03;;
13731;SDS011;6937;56.096;12.664;2022-08-26T04:18:41;2.28;;;2.08;;
13731;SDS011;6937;56.096;12.664;2022-08-26T04:21:07;2.20;;;2.00;;
13731;SDS011;6937;56.096;12.664;2022-08-26T04:23:33;3.58;;;2.00;;
13731;SDS011;6937;56.096;12.664;2022-08-26T04:26:00;2.05;;;1.85;;
13731;SDS011;6937;56.096;12.664;2022-08-26T04:28:26;2.47;;;2.22;;
13731;SDS011;6937;56.096;12.664;2022-08-26T04:30:53;3.53;;;2.20;;
13731;SDS011;6937;56.096;12.664;2022-08-26T04:33:19;3.08;;;1.95;;
13731;SDS011;6937;56.096;12.664;2022-08-26T04:35:45;3.08;;;2.00;;
13731;SDS011;6937;56.096;12.664;2022-08-26T04:38:11;3.47;;;1.98;;
13731;SDS011;6937;56.096;12.664;2022-08-26T04:40:41;3.70;;;2.25;;
13731;SDS011;6937;56.096;12.664;2022-08-26T04:43:08;2.95;;;2.10;;
13731;SDS011;6937;56.096;12.664;2022-08-26T04:45:38;2.83;;;2.25;;
13731;SDS011;6937;56.096;12.664;2022-08-26T04:48:05;3.78;;;2.40;;
13731;SDS011;6937;56.096;12.664;2022-08-26T04:50:31;3.90;;;2.42;;
13731;SDS011;6937;56.096;12.664;2022-08-26T04:52:56;2.92;;;2.28;;
13731;SDS011;6937;56.096;12.664;2022-08-26T04:55:22;2.85;;;1.17;;
13731;SDS011;6937;56.096;12.664;2022-08-26T04:57:49;2.75;;;1.40;;
13731;SDS011;6937;56.096;12.664;2022-08-26T05:00:14;4.10;;;2.20;;
13731;SDS011;6937;56.096;12.664;2022-08-26T05:02:40;2.28;;;1.85;;
13731;SDS011;6937;56.096;12.664;2022-08-26T05:05:05;3.88;;;1.80;;
13731;SDS011;6937;56.096;12.664;2022-08-26T05:07:32;5.55;;;2.22;;
13731;SDS011;6937;56.096;12.664;2022-08-26T05:09:59;3.47;;;2.05;;
13731;SDS011;6937;56.096;12.664;2022-08-26T05:12:25;2.80;;;2.17;;
13731;SDS011;6937;56.096;12.664;2022-08-26T05:14:51;12.38;;;3.88;;
13731;SDS011;6937;56.096;12.664;2022-08-26T05:17:17;11.35;;;3.90;;
13731;SDS011;6937;56.096;12.664;2022-08-26T05:19:42;6.15;;;2.08;;
13731;SDS011;6937;56.096;12.664;2022-08-26T05:22:08;4.78;;;2.63;;
13731;SDS011;6937;56.096;12.664;2022-08-26T05:24:33;4.75;;;2.33;;
13731;SDS011;6937;56.096;12.664;2022-08-26T05:27:00;3.80;;;2.20;;
13731;SDS011;6937;56.096;12.664;2022-08-26T05:29:27;2.33;;;2.22;;
13731;SDS011;6937;56.096;12.664;2022-08-26T05:31:52;2.55;;;2.33;;
13731;SDS011;6937;56.096;12.664;2022-08-26T05:34:18;2.65;;;2.45;;
13731;SDS011;6937;56.096;12.664;2022-08-26T05:36:44;2.88;;;2.35;;
13731;SDS011;6937;56.096;12.664;2022-08-26T05:39:10;2.53;;;2.10;;
13731;SDS011;6937;56.096;12.664;2022-08-26T05:41:36;8.07;;;3.85;;
13731;SDS011;6937;56.096;12.664;2022-08-26T05:44:05;6.10;;;2.90;;
13731;SDS011;6937;56.096;12.664;2022-08-26T05:46:32;5.38;;;2.60;;
13731;SDS011;6937;56.096;12.664;2022-08-26T05:48:59;4.97;;;2.42;;
13731;SDS011;6937;56.096;12.664;2022-08-26T05:51:25;3.88;;;2.08;;
13731;SDS011;6937;56.096;12.664;2022-08-26T05:53:50;3.22;;;2.13;;
13731;SDS011;6937;56.096;12.664;2022-08-26T05:56:16;4.38;;;2.47;;
13731;SDS011;6937;56.096;12.664;2022-08-26T05:58:44;2.35;;;1.75;;
13731;SDS011;6937;56.096;12.664;2022-08-26T06:01:17;3.53;;;1.90;;
13731;SDS011;6937;56.096;12.664;2022-08-26T06:03:46;4.32;;;2.13;;
13731;SDS011;6937;56.096;12.664;2022-08-26T06:06:15;4.43;;;1.92;;
13731;SDS011;6937;56.096;12.664;2022-08-26T06:09:07;3.90;;;2.00;;
13731;SDS011;6937;56.096;12.664;2022-08-26T06:11:34;4.15;;;2.65;;
13731;SDS011;6937;56.096;12.664;2022-08-26T06:14:01;2.67;;;2.05;;
13731;SDS011;6937;56.096;12.664;2022-08-26T06:16:29;3.40;;;1.92;;
13731;SDS011;6937;56.096;12.664;2022-08-26T06:18:57;2.15;;;1.90;;
13731;SDS011;6937;56.096;12.664;2022-08-26T06:21:24;3.28;;;1.90;;
13731;SDS011;6937;56.096;12.664;2022-08-26T06:23:53;4.75;;;1.88;;
13731;SDS011;6937;56.096;12.664;2022-08-26T06:26:40;3.05;;;2.03;;
13731;SDS011;6937;56.096;12.664;2022-08-26T06:29:06;3.95;;;1.80;;
13731;SDS011;6937;56.096;12.664;2022-08-26T06:31:32;3.80;;;1.90;;
13731;SDS011;6937;56.096;12.664;2022-08-26T06:34:00;5.70;;;1.80;;
13731;SDS011;6937;56.096;12.664;2022-08-26T06:36:27;3.42;;;2.00;;
13731;SDS011;6937;56.096;12.664;2022-08-26T06:38:55;5.70;;;1.98;;
13731;SDS011;6937;56.096;12.664;2022-08-26T06:41:24;5.20;;;2.38;;
13731;SDS011;6937;56.096;12.664;2022-08-26T06:43:50;3.70;;;1.83;;
13731;SDS011;6937;56.096;12.664;2022-08-26T06:46:17;2.72;;;1.80;;
13731;SDS011;6937;56.096;12.664;2022-08-26T06:48:45;4.28;;;2.50;;
13731;SDS011;6937;56.096;12.664;2022-08-26T06:53:38;3.08;;;1.80;;
13731;SDS011;6937;56.096;12.664;2022-08-26T06:56:06;3.28;;;2.08;;
13731;SDS011;6937;56.096;12.664;2022-08-26T06:58:34;3.72;;;2.25;;
13731;SDS011;6937;56.096;12.664;2022-08-26T07:01:01;2.22;;;1.77;;
13731;SDS011;6937;56.096;12.664;2022-08-26T07:07:29;5.90;;;1.98;;
13731;SDS011;6937;56.096;12.664;2022-08-26T07:09:55;4.43;;;2.20;;
13731;SDS011;6937;56.096;12.664;2022-08-26T07:12:20;3.53;;;2.10;;
13731;SDS011;6937;56.096;12.664;2022-08-26T07:14:46;4.53;;;2.17;;
13731;SDS011;6937;56.096;12.664;2022-08-26T07:17:12;3.38;;;2.17;;
13731;SDS011;6937;56.096;12.664;2022-08-26T07:19:37;5.13;;;2.15;;
13731;SDS011;6937;56.096;12.664;2022-08-26T07:22:03;4.68;;;2.47;;
13731;SDS011;6937;56.096;12.664;2022-08-26T07:24:30;4.28;;;2.10;;
13731;SDS011;6937;56.096;12.664;2022-08-26T07:27:01;6.22;;;2.50;;
13731;SDS011;6937;56.096;12.664;2022-08-26T07:29:29;3.15;;;2.20;;
13731;SDS011;6937;56.096;12.664;2022-08-26T07:31:54;5.47;;;2.60;;
13731;SDS011;6937;56.096;12.664;2022-08-26T07:34:20;5.30;;;2.33;;
13731;SDS011;6937;56.096;12.664;2022-08-26T07:36:46;5.18;;;2.50;;
13731;SDS011;6937;56.096;12.664;2022-08-26T07:39:12;5.45;;;2.55;;
13731;SDS011;6937;56.096;12.664;2022-08-26T07:41:38;4.40;;;2.63;;
13731;SDS011;6937;56.096;12.664;2022-08-26T07:44:03;5.05;;;2.50;;
13731;SDS011;6937;56.096;12.664;2022-08-26T07:46:29;5.43;;;2.45;;
13731;SDS011;6937;56.096;12.664;2022-08-26T07:48:54;6.07;;;2.80;;
13731;SDS011;6937;56.096;12.664;2022-08-26T07:51:20;4.07;;;2.65;;
13731;SDS011;6937;56.096;12.664;2022-08-26T07:53:46;4.93;;;2.35;;
13731;SDS011;6937;56.096;12.664;2022-08-26T07:56:12;5.72;;;2.72;;
13731;SDS011;6937;56.096;12.664;2022-08-26T07:58:37;4.70;;;2.38;;
13731;SDS011;6937;56.096;12.664;2022-08-26T08:01:03;5.72;;;2.63;;
13731;SDS011;6937;56.096;12.664;2022-08-26T08:03:28;4.50;;;2.60;;
13731;SDS011;6937;56.096;12.664;2022-08-26T08:05:54;3.63;;;2.38;;
13731;SDS011;6937;56.096;12.664;2022-08-26T08:08:19;2.92;;;2.63;;
13731;SDS011;6937;56.096;12.664;2022-08-26T08:10:45;4.18;;;2.33;;
13731;SDS011;6937;56.096;12.664;2022-08-26T08:13:11;6.82;;;2.50;;
13731;SDS011;6937;56.096;12.664;2022-08-26T08:15:37;3.70;;;2.17;;
13731;SDS011;6937;56.096;12.664;2022-08-26T08:18:03;5.10;;;2.70;;
13731;SDS011;6937;56.096;12.664;2022-08-26T08:20:30;3.65;;;2.47;;
13731;SDS011;6937;56.096;12.664;2022-08-26T08:22:55;5.40;;;2.65;;
13731;SDS011;6937;56.096;12.664;2022-08-26T08:25:21;3.13;;;2.17;;
13731;SDS011;6937;56.096;12.664;2022-08-26T08:27:47;3.17;;;2.38;;
13731;SDS011;6937;56.096;12.664;2022-08-26T08:30:14;3.70;;;2.20;;
13731;SDS011;6937;56.096;12.664;2022-08-26T08:32:43;2.95;;;2.30;;
13731;SDS011;6937;56.096;12.664;2022-08-26T08:35:08;4.75;;;2.40;;
13731;SDS011;6937;56.096;12.664;2022-08-26T08:37:35;7.18;;;2.10;;
13731;SDS011;6937;56.096;12.664;2022-08-26T08:40:01;2.95;;;2.13;;
13731;SDS011;6937;56.096;12.664;2022-08-26T08:42:42;3.90;;;2.13;;
13731;SDS011;6937;56.096;12.664;2022-08-26T08:48:21;5.05;;;2.33;;
13731;SDS011;6937;56.096;12.664;2022-08-26T08:50:51;4.28;;;2.10;;
13731;SDS011;6937;56.096;12.664;2022-08-26T09:07:38;3.00;;;1.70;;
13731;SDS011;6937;56.096;12.664;2022-08-26T09:13:06;5.13;;;2.25;;
13731;SDS011;6937;56.096;12.664;2022-08-26T09:20:56;4.28;;;1.65;;
13731;SDS011;6937;56.096;12.664;2022-08-26T09:23:27;2.75;;;2.10;;
13731;SDS011;6937;56.096;12.664;2022-08-26T09:25:55;1.88;;;1.77;;
13731;SDS011;6937;56.096;12.664;2022-08-26T09:28:23;3.03;;;2.00;;
13731;SDS011;6937;56.096;12.664;2022-08-26T09:33:25;3.90;;;2.42;;
13731;SDS011;6937;56.096;12.664;2022-08-26T09:35:53;2.97;;;1.90;;
13731;SDS011;6937;56.096;12.664;2022-08-26T09:38:48;4.15;;;2.30;;
13731;SDS011;6937;56.096;12.664;2022-08-26T09:41:22;4.72;;;2.30;;
13731;SDS011;6937;56.096;12.664;2022-08-26T09:44:17;3.58;;;1.90;;
13731;SDS011;6937;56.096;12.664;2022-08-26T09:46:44;4.53;;;2.05;;
13731;SDS011;6937;56.096;12.664;2022-08-26T09:52:21;2.83;;;2.03;;
13731;SDS011;6937;56.096;12.664;2022-08-26T09:54:59;3.90;;;2.28;;
13731;SDS011;6937;56.096;12.664;2022-08-26T09:57:32;3.13;;;1.83;;
13731;SDS011;6937;56.096;12.664;2022-08-26T09:59:59;3.40;;;2.10;;
13731;SDS011;6937;56.096;12.664;2022-08-26T10:02:28;3.00;;;1.80;;
13731;SDS011;6937;56.096;12.664;2022-08-26T10:04:59;3.03;;;1.90;;
13731;SDS011;6937;56.096;12.664;2022-08-26T10:07:41;4.22;;;1.73;;
13731;SDS011;6937;56.096;12.664;2022-08-26T10:10:11;3.95;;;1.85;;
13731;SDS011;6937;56.096;12.664;2022-08-26T10:13:03;3.28;;;2.20;;
13731;SDS011;6937;56.096;12.664;2022-08-26T10:18:30;2.30;;;1.83;;
13731;SDS011;6937;56.096;12.664;2022-08-26T10:21:06;4.20;;;2.05;;
13731;SDS011;6937;56.096;12.664;2022-08-26T10:23:40;2.42;;;1.80;;
13731;SDS011;6937;56.096;12.664;2022-08-26T10:31:38;4.10;;;2.33;;
13731;SDS011;6937;56.096;12.664;2022-08-26T10:34:16;5.75;;;2.67;;
13731;SDS011;6937;56.096;12.664;2022-08-26T10:37:25;6.70;;;2.83;;
13731;SDS011;6937;56.096;12.664;2022-08-26T10:39:35;5.78;;;2.58;;
13731;SDS011;6937;56.096;12.664;2022-08-26T10:42:21;7.95;;;2.70;;
13731;SDS011;6937;56.096;12.664;2022-08-26T10:45:42;4.53;;;2.80;;
13731;SDS011;6937;56.096;12.664;2022-08-26T10:48:11;4.78;;;2.53;;
13731;SDS011;6937;56.096;12.664;2022-08-26T10:50:43;6.05;;;2.90;;
13731;SDS011;6937;56.096;12.664;2022-08-26T11:01:11;6.07;;;2.60;;
13731;SDS011;6937;56.096;12.664;2022-08-26T11:09:54;5.70;;;2.90;;
13731;SDS011;6937;56.096;12.664;2022-08-26T11:14:58;4.70;;;2.85;;
13731;SDS011;6937;56.096;12.664;2022-08-26T11:22:47;5.88;;;2.67;;
13731;SDS011;6937;56.096;12.664;2022-08-26T11:25:16;8.27;;;2.70;;
13731;SDS011;6937;56.096;12.664;2022-08-26T11:35:11;4.40;;;3.65;;
13731;SDS011;6937;56.096;12.664;2022-08-26T11:37:47;5.10;;;2.95;;
13731;SDS011;6937;56.096;12.664;2022-08-26T11:40:32;6.43;;;2.80;;
13731;SDS011;6937;56.096;12.664;2022-08-26T11:43:04;5.03;;;3.25;;
13731;SDS011;6937;56.096;12.664;2022-08-26T11:45:46;2.40;;;2.20;;
13731;SDS011;6937;56.096;12.664;2022-08-26T11:50:55;6.53;;;2.50;;
13731;SDS011;6937;56.096;12.664;2022-08-26T11:53:24;5.07;;;2.50;;
13731;SDS011;6937;56.096;12.664;2022-08-26T11:55:52;4.38;;;2.65;;
13731;SDS011;6937;56.096;12.664;2022-08-26T11:58:19;3.05;;;2.30;;
13731;SDS011;6937;56.096;12.664;2022-08-26T12:00:50;4.53;;;2.45;;
13731;SDS011;6937;56.096;12.664;2022-08-26T12:03:22;4.35;;;2.13;;
13731;SDS011;6937;56.096;12.664;2022-08-26T12:05:55;3.88;;;2.20;;
13731;SDS011;6937;56.096;12.664;2022-08-26T12:08:25;4.35;;;2.38;;
13731;SDS011;6937;56.096;12.664;2022-08-26T12:11:03;3.22;;;2.22;;
13731;SDS011;6937;56.096;12.664;2022-08-26T12:13:33;4.43;;;2.60;;
13731;SDS011;6937;56.096;12.664;2022-08-26T12:16:03;3.70;;;2.20;;
13731;SDS011;6937;56.096;12.664;2022-08-26T12:18:30;4.15;;;2.25;;
13731;SDS011;6937;56.096;12.664;2022-08-26T12:20:59;2.97;;;2.10;;
13731;SDS011;6937;56.096;12.664;2022-08-26T12:23:45;5.15;;;2.08;;
13731;SDS011;6937;56.096;12.664;2022-08-26T12:28:56;3.95;;;2.10;;
13731;SDS011;6937;56.096;12.664;2022-08-26T12:31:27;3.00;;;2.28;;
13731;SDS011;6937;56.096;12.664;2022-08-26T12:33:53;2.95;;;1.95;;
13731;SDS011;6937;56.096;12.664;2022-08-26T12:36:21;3.72;;;2.08;;
13731;SDS011;6937;56.096;12.664;2022-08-26T12:38:51;4.20;;;1.80;;
13731;SDS011;6937;56.096;12.664;2022-08-26T12:44:02;5.07;;;2.88;;
13731;SDS011;6937;56.096;12.664;2022-08-26T12:46:27;6.20;;;2.35;;
13731;SDS011;6937;56.096;12.664;2022-08-26T12:48:53;5.45;;;2.40;;
13731;SDS011;6937;56.096;12.664;2022-08-26T12:51:25;4.55;;;2.30;;
13731;SDS011;6937;56.096;12.664;2022-08-26T12:53:53;5.55;;;2.58;;
13731;SDS011;6937;56.096;12.664;2022-08-26T13:01:54;3.40;;;2.35;;
13731;SDS011;6937;56.096;12.664;2022-08-26T13:04:36;3.47;;;2.10;;
13731;SDS011;6937;56.096;12.664;2022-08-26T13:09:52;4.60;;;2.50;;
13731;SDS011;6937;56.096;12.664;2022-08-26T13:12:34;4.35;;;2.03;;
13731;SDS011;6937;56.096;12.664;2022-08-26T13:15:02;4.60;;;2.55;;
13731;SDS011;6937;56.096;12.664;2022-08-26T13:17:29;4.28;;;2.03;;
13731;SDS011;6937;56.096;12.664;2022-08-26T13:19:55;3.45;;;2.10;;
13731;SDS011;6937;56.096;12.664;2022-08-26T13:22:22;4.40;;;2.13;;
13731;SDS011;6937;56.096;12.664;2022-08-26T13:24:48;2.70;;;1.98;;
13731;SDS011;6937;56.096;12.664;2022-08-26T13:27:18;2.67;;;2.30;;
13731;SDS011;6937;56.096;12.664;2022-08-26T13:29:46;4.32;;;2.10;;
13731;SDS011;6937;56.096;12.664;2022-08-26T13:32:12;4.47;;;2.10;;
13731;SDS011;6937;56.096;12.664;2022-08-26T13:34:38;3.45;;;2.30;;
13731;SDS011;6937;56.096;12.664;2022-08-26T13:37:03;3.55;;;2.13;;
13731;SDS011;6937;56.096;12.664;2022-08-26T13:39:29;4.60;;;2.20;;
13731;SDS011;6937;56.096;12.664;2022-08-26T13:41:55;4.38;;;2.45;;
13731;SDS011;6937;56.096;12.664;2022-08-26T13:44:20;4.05;;;2.20;;
13731;SDS011;6937;56.096;12.664;2022-08-26T13:46:46;4.95;;;2.30;;
13731;SDS011;6937;56.096;12.664;2022-08-26T13:49:11;4.40;;;2.10;;
13731;SDS011;6937;56.096;12.664;2022-08-26T13:51:37;2.72;;;2.00;;
13731;SDS011;6937;56.096;12.664;2022-08-26T13:54:04;5.60;;;2.05;;
13731;SDS011;6937;56.096;12.664;2022-08-26T13:56:30;6.32;;;2.25;;
13731;SDS011;6937;56.096;12.664;2022-08-26T13:58:57;3.28;;;2.15;;
13731;SDS011;6937;56.096;12.664;2022-08-26T14:01:23;4.95;;;2.50;;
13731;SDS011;6937;56.096;12.664;2022-08-26T14:03:50;3.88;;;1.95;;
13731;SDS011;6937;56.096;12.664;2022-08-26T14:06:16;4.85;;;2.40;;
13731;SDS011;6937;56.096;12.664;2022-08-26T14:08:42;3.08;;;2.13;;
13731;SDS011;6937;56.096;12.664;2022-08-26T14:11:08;3.72;;;2.10;;
13731;SDS011;6937;56.096;12.664;2022-08-26T14:13:33;4.13;;;2.17;;
13731;SDS011;6937;56.096;12.664;2022-08-26T14:15:59;4.63;;;2.10;;
13731;SDS011;6937;56.096;12.664;2022-08-26T14:18:32;3.53;;;2.03;;
13731;SDS011;6937;56.096;12.664;2022-08-26T14:21:00;5.05;;;2.20;;
13731;SDS011;6937;56.096;12.664;2022-08-26T14:23:29;4.07;;;2.15;;
13731;SDS011;6937;56.096;12.664;2022-08-26T14:25:54;3.55;;;1.88;;
13731;SDS011;6937;56.096;12.664;2022-08-26T14:28:20;5.13;;;2.28;;
13731;SDS011;6937;56.096;12.664;2022-08-26T14:30:46;2.47;;;1.90;;
13731;SDS011;6937;56.096;12.664;2022-08-26T14:33:16;3.63;;;2.03;;
13731;SDS011;6937;56.096;12.664;2022-08-26T14:35:43;3.75;;;2.20;;
13731;SDS011;6937;56.096;12.664;2022-08-26T14:38:09;4.10;;;2.17;;
13731;SDS011;6937;56.096;12.664;2022-08-26T14:40:34;5.05;;;2.25;;
13731;SDS011;6937;56.096;12.664;2022-08-26T14:43:00;2.90;;;2.60;;
13731;SDS011;6937;56.096;12.664;2022-08-26T14:45:26;3.88;;;2.20;;
13731;SDS011;6937;56.096;12.664;2022-08-26T14:47:52;3.90;;;2.08;;
13731;SDS011;6937;56.096;12.664;2022-08-26T14:50:21;5.03;;;2.13;;
13731;SDS011;6937;56.096;12.664;2022-08-26T14:52:49;3.00;;;2.05;;
13731;SDS011;6937;56.096;12.664;2022-08-26T14:55:34;4.70;;;1.95;;
13731;SDS011;6937;56.096;12.664;2022-08-26T14:58:02;4.97;;;1.92;;
13731;SDS011;6937;56.096;12.664;2022-08-26T15:00:27;3.35;;;2.08;;
13731;SDS011;6937;56.096;12.664;2022-08-26T15:02:53;3.00;;;2.00;;
13731;SDS011;6937;56.096;12.664;2022-08-26T15:05:19;4.00;;;2.15;;
13731;SDS011;6937;56.096;12.664;2022-08-26T15:07:45;5.25;;;2.25;;
13731;SDS011;6937;56.096;12.664;2022-08-26T15:10:11;5.55;;;2.47;;
13731;SDS011;6937;56.096;12.664;2022-08-26T15:12:38;3.92;;;1.92;;
13731;SDS011;6937;56.096;12.664;2022-08-26T15:15:05;3.97;;;2.00;;
13731;SDS011;6937;56.096;12.664;2022-08-26T15:17:31;4.38;;;2.47;;
13731;SDS011;6937;56.096;12.664;2022-08-26T15:20:03;3.80;;;2.10;;
13731;SDS011;6937;56.096;12.664;2022-08-26T15:22:32;3.22;;;2.10;;
13731;SDS011;6937;56.096;12.664;2022-08-26T15:24:58;3.80;;;2.00;;
13731;SDS011;6937;56.096;12.664;2022-08-26T15:27:23;2.90;;;2.10;;
13731;SDS011;6937;56.096;12.664;2022-08-26T15:29:49;5.47;;;2.20;;
13731;SDS011;6937;56.096;12.664;2022-08-26T15:32:14;2.10;;;1.83;;
13731;SDS011;6937;56.096;12.664;2022-08-26T15:34:40;5.55;;;2.60;;
13731;SDS011;6937;56.096;12.664;2022-08-26T15:37:05;4.68;;;2.03;;
13731;SDS011;6937;56.096;12.664;2022-08-26T15:39:31;2.22;;;1.98;;
13731;SDS011;6937;56.096;12.664;2022-08-26T15:41:56;3.65;;;2.13;;
13731;SDS011;6937;56.096;12.664;2022-08-26T15:44:24;4.03;;;2.20;;
13731;SDS011;6937;56.096;12.664;2022-08-26T15:46:50;2.35;;;2.15;;
13731;SDS011;6937;56.096;12.664;2022-08-26T15:49:16;4.13;;;2.22;;
13731;SDS011;6937;56.096;12.664;2022-08-26T15:51:42;4.63;;;2.33;;
13731;SDS011;6937;56.096;12.664;2022-08-26T15:54:08;5.97;;;2.17;;
13731;SDS011;6937;56.096;12.664;2022-08-26T15:56:34;5.43;;;2.13;;
13731;SDS011;6937;56.096;12.664;2022-08-26T15:59:01;2.88;;;2.00;;
13731;SDS011;6937;56.096;12.664;2022-08-26T16:01:28;3.80;;;2.17;;
13731;SDS011;6937;56.096;12.664;2022-08-26T16:03:54;4.53;;;2.33;;
13731;SDS011;6937;56.096;12.664;2022-08-26T16:06:22;2.50;;;2.05;;
13731;SDS011;6937;56.096;12.664;2022-08-26T16:08:51;3.42;;;2.17;;
13731;SDS011;6937;56.096;12.664;2022-08-26T16:11:17;6.97;;;2.50;;
13731;SDS011;6937;56.096;12.664;2022-08-26T16:13:44;4.85;;;2.30;;
13731;SDS011;6937;56.096;12.664;2022-08-26T16:16:13;4.35;;;2.20;;
13731;SDS011;6937;56.096;12.664;2022-08-26T16:18:39;3.10;;;2.10;;
13731;SDS011;6937;56.096;12.664;2022-08-26T16:21:06;5.53;;;2.50;;
13731;SDS011;6937;56.096;12.664;2022-08-26T16:23:32;5.28;;;2.13;;
13731;SDS011;6937;56.096;12.664;2022-08-26T16:25:58;5.45;;;2.58;;
13731;SDS011;6937;56.096;12.664;2022-08-26T16:28:24;6.10;;;2.78;;
13731;SDS011;6937;56.096;12.664;2022-08-26T16:30:50;4.55;;;2.95;;